Time;durP1;ratioP1;P1;durP2;ratioP2;P2;SDS_P1;SDS_P2;PMS_P1;PMS_P2;Temp;Humidity;BMP_temperature;BMP_pressure;BME280_temperature;BME280_humidity;BME280_pressure;Samples;Min_cycle;Max_cycle;Signal;HPM_P1;HPM_P2
2022/06/29 00:00:00;;;;;;;0.2;0.2;;;;;;;19.2;100.0;101350;;;;
2022/06/29 00:01:00;;;;;;;0.2;0.2;;;;;;;19.2;100.0;101350;;;;
2022/06/29 00:02:00;;;;;;;0.2;0.2;;;;;;;19.0;100.0;101350;;;;
2022/06/29 00:03:00;;;;;;;0.2;0.2;;;;;;;19.0;100.0;101350;;;;
2022/06/29 00:04:01;;;;;;;0.2;0.2;;;;;;;19.0;100.0;101350;;;;
2022/06/29 00:05:00;;;;;;;0.2;0.2;;;;;;;19.0;100.0;101350;;;;
2022/06/29 00:06:00;;;;;;;0.2;0.2;;;;;;;19.0;100.0;101340;;;;
2022/06/29 00:07:00;;;;;;;0.2;0.2;;;;;;;19.0;100.0;101340;;;;
2022/06/29 00:08:07;;;;;;;0.2;0.2;;;;;;;18.9;100.0;101350;;;;
2022/06/29 00:09:00;;;;;;;0.2;0.2;;;;;;;18.9;100.0;101350;;;;
2022/06/29 00:10:00;;;;;;;0.2;0.2;;;;;;;18.9;100.0;101340;;;;
2022/06/29 00:11:00;;;;;;;0.2;0.2;;;;;;;18.9;100.0;101340;;;;
2022/06/29 00:12:00;;;;;;;0.2;0.2;;;;;;;18.9;100.0;101340;;;;
2022/06/29 00:13:00;;;;;;;0.2;0.2;;;;;;;18.9;100.0;101340;;;;
2022/06/29 00:14:00;;;;;;;0.2;0.2;;;;;;;18.9;100.0;101340;;;;
2022/06/29 00:15:02;;;;;;;0.2;0.2;;;;;;;18.9;100.0;101340;;;;
2022/06/29 00:16:00;;;;;;;0.2;0.2;;;;;;;18.9;100.0;101340;;;;
2022/06/29 00:17:00;;;;;;;0.2;0.2;;;;;;;18.9;100.0;101340;;;;
2022/06/29 00:18:00;;;;;;;0.2;0.2;;;;;;;18.8;100.0;101340;;;;
2022/06/29 00:19:00;;;;;;;0.2;0.2;;;;;;;18.8;100.0;101340;;;;
2022/06/29 00:20:01;;;;;;;0.2;0.2;;;;;;;18.9;100.0;101340;;;;
2022/06/29 00:21:00;;;;;;;0.2;0.2;;;;;;;18.9;100.0;101340;;;;
2022/06/29 00:22:00;;;;;;;0.2;0.2;;;;;;;18.8;100.0;101340;;;;
2022/06/29 00:23:00;;;;;;;0.3;0.3;;;;;;;18.8;100.0;101340;;;;
2022/06/29 00:24:00;;;;;;;0.3;0.3;;;;;;;18.8;100.0;101340;;;;
2022/06/29 00:25:00;;;;;;;0.3;0.3;;;;;;;18.8;100.0;101340;;;;
2022/06/29 00:26:00;;;;;;;0.3;0.3;;;;;;;18.7;100.0;101340;;;;
2022/06/29 00:27:01;;;;;;;0.3;0.3;;;;;;;18.7;100.0;101340;;;;
2022/06/29 00:28:00;;;;;;;0.3;0.3;;;;;;;18.6;100.0;101340;;;;
2022/06/29 00:29:00;;;;;;;0.3;0.3;;;;;;;18.6;100.0;101340;;;;
2022/06/29 00:30:00;;;;;;;0.3;0.3;;;;;;;18.7;100.0;101340;;;;
2022/06/29 00:31:00;;;;;;;0.3;0.3;;;;;;;18.7;100.0;101340;;;;
2022/06/29 00:32:00;;;;;;;0.3;0.3;;;;;;;18.6;100.0;101340;;;;
2022/06/29 00:33:00;;;;;;;0.3;0.3;;;;;;;18.6;100.0;101340;;;;
2022/06/29 00:34:00;;;;;;;0.3;0.3;;;;;;;18.7;100.0;101340;;;;
2022/06/29 00:35:00;;;;;;;0.3;0.3;;;;;;;18.7;100.0;101340;;;;
2022/06/29 00:36:00;;;;;;;0.3;0.3;;;;;;;18.7;100.0;101330;;;;
2022/06/29 00:37:00;;;;;;;0.3;0.3;;;;;;;18.7;100.0;101330;;;;
2022/06/29 00:38:00;;;;;;;0.3;0.3;;;;;;;18.6;100.0;101330;;;;
2022/06/29 00:39:00;;;;;;;0.3;0.3;;;;;;;18.6;100.0;101330;;;;
2022/06/29 00:40:00;;;;;;;0.3;0.3;;;;;;;18.6;100.0;101330;;;;
2022/06/29 00:41:00;;;;;;;0.3;0.3;;;;;;;18.6;100.0;101330;;;;
2022/06/29 00:42:00;;;;;;;0.3;0.3;;;;;;;18.6;100.0;101330;;;;
2022/06/29 00:43:00;;;;;;;0.7;0.7;;;;;;;18.6;100.0;101330;;;;
2022/06/29 00:44:00;;;;;;;0.7;0.7;;;;;;;18.6;100.0;101330;;;;
2022/06/29 00:45:00;;;;;;;0.7;0.7;;;;;;;18.6;100.0;101330;;;;
2022/06/29 00:46:00;;;;;;;0.7;0.7;;;;;;;18.6;100.0;101320;;;;
2022/06/29 00:47:02;;;;;;;0.7;0.7;;;;;;;18.6;100.0;101320;;;;
2022/06/29 00:48:00;;;;;;;0.7;0.7;;;;;;;18.6;100.0;101320;;;;
2022/06/29 00:49:00;;;;;;;0.7;0.7;;;;;;;18.6;100.0;101320;;;;
2022/06/29 00:50:00;;;;;;;0.7;0.7;;;;;;;18.5;100.0;101320;;;;
2022/06/29 00:51:01;;;;;;;0.7;0.7;;;;;;;18.5;100.0;101320;;;;
2022/06/29 00:52:04;;;;;;;0.7;0.7;;;;;;;18.5;100.0;101320;;;;
2022/06/29 00:53:03;;;;;;;0.7;0.7;;;;;;;18.5;100.0;101320;;;;
2022/06/29 00:54:03;;;;;;;0.7;0.7;;;;;;;18.5;100.0;101320;;;;
2022/06/29 00:55:06;;;;;;;0.7;0.7;;;;;;;18.5;100.0;101320;;;;
2022/06/29 00:56:01;;;;;;;0.7;0.7;;;;;;;18.3;100.0;101320;;;;
2022/06/29 00:57:02;;;;;;;0.7;0.7;;;;;;;18.3;100.0;101320;;;;
2022/06/29 00:58:04;;;;;;;0.7;0.7;;;;;;;18.4;100.0;101320;;;;
2022/06/29 00:59:02;;;;;;;0.7;0.7;;;;;;;18.4;100.0;101320;;;;
2022/06/29 01:00:00;;;;;;;0.7;0.7;;;;;;;18.4;100.0;101320;;;;
2022/06/29 01:01:03;;;;;;;0.7;0.7;;;;;;;18.4;100.0;101320;;;;
2022/06/29 01:02:01;;;;;;;0.7;0.7;;;;;;;18.4;100.0;101320;;;;
2022/06/29 01:03:01;;;;;;;0.2;0.2;;;;;;;18.4;100.0;101320;;;;
2022/06/29 01:04:00;;;;;;;0.2;0.2;;;;;;;18.3;100.0;101320;;;;
2022/06/29 01:05:00;;;;;;;0.2;0.2;;;;;;;18.3;100.0;101320;;;;
2022/06/29 01:06:00;;;;;;;0.2;0.2;;;;;;;18.4;100.0;101310;;;;
2022/06/29 01:07:00;;;;;;;0.2;0.2;;;;;;;18.4;100.0;101310;;;;
2022/06/29 01:08:00;;;;;;;0.2;0.2;;;;;;;18.4;100.0;101310;;;;
2022/06/29 01:09:00;;;;;;;0.2;0.2;;;;;;;18.4;100.0;101310;;;;
2022/06/29 01:10:00;;;;;;;0.2;0.2;;;;;;;18.2;100.0;101300;;;;
2022/06/29 01:11:00;;;;;;;0.2;0.2;;;;;;;18.2;100.0;101300;;;;
2022/06/29 01:12:00;;;;;;;0.2;0.2;;;;;;;18.2;100.0;101300;;;;
2022/06/29 01:13:00;;;;;;;0.2;0.2;;;;;;;18.2;100.0;101300;;;;
2022/06/29 01:14:00;;;;;;;0.2;0.2;;;;;;;18.2;100.0;101300;;;;
2022/06/29 01:15:00;;;;;;;0.2;0.2;;;;;;;18.2;100.0;101300;;;;
2022/06/29 01:16:00;;;;;;;0.2;0.2;;;;;;;18.3;100.0;101300;;;;
2022/06/29 01:17:00;;;;;;;0.2;0.2;;;;;;;18.3;100.0;101300;;;;
2022/06/29 01:18:00;;;;;;;0.2;0.2;;;;;;;18.1;100.0;101300;;;;
2022/06/29 01:19:00;;;;;;;0.2;0.2;;;;;;;18.1;100.0;101300;;;;
2022/06/29 01:20:00;;;;;;;0.2;0.2;;;;;;;18.1;100.0;101290;;;;
2022/06/29 01:21:03;;;;;;;0.2;0.2;;;;;;;18.1;100.0;101290;;;;
2022/06/29 01:22:08;;;;;;;0.2;0.2;;;;;;;18.1;100.0;101300;;;;
2022/06/29 01:23:00;;;;;;;0.3;0.3;;;;;;;18.1;100.0;101300;;;;
2022/06/29 01:24:00;;;;;;;0.3;0.3;;;;;;;18.1;100.0;101300;;;;
2022/06/29 01:25:00;;;;;;;0.3;0.3;;;;;;;18.1;100.0;101300;;;;
2022/06/29 01:26:04;;;;;;;0.3;0.3;;;;;;;18.0;100.0;101310;;;;
2022/06/29 01:27:00;;;;;;;0.3;0.3;;;;;;;18.0;100.0;101310;;;;
2022/06/29 01:28:00;;;;;;;0.3;0.3;;;;;;;18.0;100.0;101300;;;;
2022/06/29 01:29:00;;;;;;;0.3;0.3;;;;;;;18.0;100.0;101300;;;;
2022/06/29 01:30:00;;;;;;;0.3;0.3;;;;;;;17.9;100.0;101300;;;;
2022/06/29 01:31:00;;;;;;;0.3;0.3;;;;;;;17.9;100.0;101300;;;;
2022/06/29 01:32:00;;;;;;;0.3;0.3;;;;;;;18.0;100.0;101290;;;;
2022/06/29 01:33:00;;;;;;;0.3;0.3;;;;;;;18.0;100.0;101290;;;;
2022/06/29 01:34:01;;;;;;;0.3;0.3;;;;;;;18.0;100.0;101300;;;;
2022/06/29 01:35:00;;;;;;;0.3;0.3;;;;;;;18.0;100.0;101300;;;;
2022/06/29 01:36:00;;;;;;;0.3;0.3;;;;;;;17.9;100.0;101300;;;;
2022/06/29 01:37:00;;;;;;;0.3;0.3;;;;;;;17.9;100.0;101300;;;;
2022/06/29 01:38:00;;;;;;;0.3;0.3;;;;;;;17.9;100.0;101300;;;;
2022/06/29 01:39:00;;;;;;;0.3;0.3;;;;;;;17.9;100.0;101300;;;;
2022/06/29 01:40:00;;;;;;;0.3;0.3;;;;;;;17.9;100.0;101300;;;;
2022/06/29 01:41:00;;;;;;;0.3;0.3;;;;;;;17.9;100.0;101300;;;;
2022/06/29 01:42:00;;;;;;;0.3;0.3;;;;;;;18.0;100.0;101290;;;;
2022/06/29 01:43:00;;;;;;;0.5;0.5;;;;;;;18.0;100.0;101290;;;;
2022/06/29 01:44:00;;;;;;;0.5;0.5;;;;;;;18.0;100.0;101290;;;;
2022/06/29 01:45:00;;;;;;;0.5;0.5;;;;;;;18.0;100.0;101290;;;;
2022/06/29 01:46:00;;;;;;;0.5;0.5;;;;;;;18.0;100.0;101290;;;;
2022/06/29 01:47:01;;;;;;;0.5;0.5;;;;;;;18.0;100.0;101290;;;;
2022/06/29 01:48:00;;;;;;;0.5;0.5;;;;;;;18.0;100.0;101290;;;;
2022/06/29 01:49:00;;;;;;;0.5;0.5;;;;;;;18.0;100.0;101290;;;;
2022/06/29 01:50:00;;;;;;;0.5;0.5;;;;;;;17.9;100.0;101290;;;;
2022/06/29 01:51:00;;;;;;;0.5;0.5;;;;;;;17.9;100.0;101290;;;;
2022/06/29 01:52:00;;;;;;;0.5;0.5;;;;;;;18.0;100.0;101290;;;;
2022/06/29 01:53:00;;;;;;;0.5;0.5;;;;;;;18.0;100.0;101290;;;;
2022/06/29 01:54:00;;;;;;;0.5;0.5;;;;;;;17.9;100.0;101290;;;;
2022/06/29 01:55:00;;;;;;;0.5;0.5;;;;;;;17.9;100.0;101290;;;;
2022/06/29 01:56:00;;;;;;;0.5;0.5;;;;;;;17.9;100.0;101280;;;;
2022/06/29 01:57:00;;;;;;;0.5;0.5;;;;;;;17.9;100.0;101280;;;;
2022/06/29 01:58:00;;;;;;;0.5;0.5;;;;;;;17.9;100.0;101280;;;;
2022/06/29 01:59:00;;;;;;;0.5;0.5;;;;;;;17.9;100.0;101280;;;;
2022/06/29 02:00:00;;;;;;;0.5;0.5;;;;;;;17.9;100.0;101280;;;;
2022/06/29 02:01:00;;;;;;;0.5;0.5;;;;;;;17.9;100.0;101280;;;;
2022/06/29 02:02:00;;;;;;;0.5;0.5;;;;;;;17.9;100.0;101280;;;;
2022/06/29 02:03:00;;;;;;;0.4;0.4;;;;;;;17.9;100.0;101280;;;;
2022/06/29 02:04:00;;;;;;;0.4;0.4;;;;;;;17.9;100.0;101280;;;;
2022/06/29 02:05:00;;;;;;;0.4;0.4;;;;;;;17.9;100.0;101280;;;;
2022/06/29 02:06:00;;;;;;;0.4;0.4;;;;;;;17.9;100.0;101280;;;;
2022/06/29 02:07:00;;;;;;;0.4;0.4;;;;;;;17.9;100.0;101280;;;;
2022/06/29 02:08:00;;;;;;;0.4;0.4;;;;;;;17.8;100.0;101280;;;;
2022/06/29 02:09:00;;;;;;;0.4;0.4;;;;;;;17.8;100.0;101280;;;;
2022/06/29 02:10:00;;;;;;;0.4;0.4;;;;;;;17.7;100.0;101270;;;;
2022/06/29 02:11:00;;;;;;;0.4;0.4;;;;;;;17.7;100.0;101270;;;;
2022/06/29 02:12:00;;;;;;;0.4;0.4;;;;;;;17.7;100.0;101270;;;;
2022/06/29 02:13:00;;;;;;;0.4;0.4;;;;;;;17.7;100.0;101270;;;;
2022/06/29 02:14:00;;;;;;;0.4;0.4;;;;;;;17.8;100.0;101270;;;;
2022/06/29 02:15:00;;;;;;;0.4;0.4;;;;;;;17.8;100.0;101270;;;;
2022/06/29 02:16:00;;;;;;;0.4;0.4;;;;;;;17.8;100.0;101270;;;;
2022/06/29 02:17:00;;;;;;;0.4;0.4;;;;;;;17.8;100.0;101270;;;;
2022/06/29 02:18:00;;;;;;;0.4;0.4;;;;;;;17.8;100.0;101270;;;;
2022/06/29 02:19:00;;;;;;;0.4;0.4;;;;;;;17.8;100.0;101270;;;;
2022/06/29 02:20:00;;;;;;;0.4;0.4;;;;;;;17.8;100.0;101270;;;;
2022/06/29 02:21:00;;;;;;;0.4;0.4;;;;;;;17.8;100.0;101270;;;;
2022/06/29 02:22:01;;;;;;;0.4;0.4;;;;;;;17.6;100.0;101280;;;;
2022/06/29 02:23:00;;;;;;;0.4;0.4;;;;;;;17.6;100.0;101280;;;;
2022/06/29 02:24:00;;;;;;;0.4;0.4;;;;;;;17.8;100.0;101280;;;;
2022/06/29 02:25:00;;;;;;;0.4;0.4;;;;;;;17.8;100.0;101280;;;;
2022/06/29 02:26:00;;;;;;;0.4;0.4;;;;;;;17.7;100.0;101270;;;;
2022/06/29 02:27:00;;;;;;;0.4;0.4;;;;;;;17.7;100.0;101270;;;;
2022/06/29 02:28:00;;;;;;;0.4;0.4;;;;;;;17.6;100.0;101270;;;;
2022/06/29 02:29:00;;;;;;;0.4;0.4;;;;;;;17.6;100.0;101270;;;;
2022/06/29 02:30:00;;;;;;;0.4;0.4;;;;;;;17.6;100.0;101270;;;;
2022/06/29 02:35:00;;;;;;;0.4;0.4;;;;;;;17.5;100.0;101270;;;;
2022/06/29 02:36:00;;;;;;;0.4;0.4;;;;;;;17.6;100.0;101260;;;;
2022/06/29 02:37:00;;;;;;;0.4;0.4;;;;;;;17.6;100.0;101260;;;;
2022/06/29 02:38:00;;;;;;;0.4;0.4;;;;;;;17.7;100.0;101260;;;;
2022/06/29 02:39:00;;;;;;;0.4;0.4;;;;;;;17.7;100.0;101260;;;;
2022/06/29 02:40:00;;;;;;;0.4;0.4;;;;;;;17.7;100.0;101260;;;;
2022/06/29 02:41:00;;;;;;;0.4;0.4;;;;;;;17.7;100.0;101260;;;;
2022/06/29 02:42:00;;;;;;;0.4;0.4;;;;;;;17.8;100.0;101260;;;;
2022/06/29 02:43:03;;;;;;;0.3;0.3;;;;;;;17.8;100.0;101260;;;;
2022/06/29 02:44:00;;;;;;;0.3;0.3;;;;;;;17.8;100.0;101260;;;;
2022/06/29 02:45:00;;;;;;;0.3;0.3;;;;;;;17.8;100.0;101260;;;;
2022/06/29 02:46:00;;;;;;;0.3;0.3;;;;;;;17.7;100.0;101260;;;;
2022/06/29 02:47:00;;;;;;;0.3;0.3;;;;;;;17.7;100.0;101260;;;;
2022/06/29 02:48:00;;;;;;;0.3;0.3;;;;;;;17.7;100.0;101260;;;;
2022/06/29 02:49:00;;;;;;;0.3;0.3;;;;;;;17.7;100.0;101260;;;;
2022/06/29 02:50:00;;;;;;;0.3;0.3;;;;;;;17.8;100.0;101260;;;;
2022/06/29 02:51:00;;;;;;;0.3;0.3;;;;;;;17.8;100.0;101260;;;;
2022/06/29 02:52:00;;;;;;;0.3;0.3;;;;;;;17.7;100.0;101270;;;;
2022/06/29 02:53:00;;;;;;;0.3;0.3;;;;;;;17.7;100.0;101270;;;;
2022/06/29 02:54:00;;;;;;;0.3;0.3;;;;;;;17.8;100.0;101260;;;;
2022/06/29 02:55:00;;;;;;;0.3;0.3;;;;;;;17.8;100.0;101260;;;;
2022/06/29 02:56:00;;;;;;;0.3;0.3;;;;;;;17.7;100.0;101260;;;;
2022/06/29 02:57:00;;;;;;;0.3;0.3;;;;;;;17.7;100.0;101260;;;;
2022/06/29 02:58:00;;;;;;;0.3;0.3;;;;;;;17.7;100.0;101260;;;;
2022/06/29 02:59:00;;;;;;;0.3;0.3;;;;;;;17.7;100.0;101260;;;;
2022/06/29 03:00:00;;;;;;;0.3;0.3;;;;;;;17.8;100.0;101260;;;;
2022/06/29 03:01:00;;;;;;;0.3;0.3;;;;;;;17.8;100.0;101260;;;;
2022/06/29 03:02:00;;;;;;;0.3;0.3;;;;;;;17.8;100.0;101250;;;;
2022/06/29 03:03:00;;;;;;;0.3;0.3;;;;;;;17.8;100.0;101250;;;;
2022/06/29 03:04:00;;;;;;;0.3;0.3;;;;;;;17.7;100.0;101250;;;;
2022/06/29 03:05:00;;;;;;;0.3;0.3;;;;;;;17.7;100.0;101250;;;;
2022/06/29 03:06:00;;;;;;;0.3;0.3;;;;;;;17.7;100.0;101250;;;;
2022/06/29 03:07:00;;;;;;;0.3;0.3;;;;;;;17.7;100.0;101250;;;;
2022/06/29 03:08:00;;;;;;;0.3;0.3;;;;;;;17.8;100.0;101250;;;;
2022/06/29 03:09:00;;;;;;;0.3;0.3;;;;;;;17.8;100.0;101250;;;;
2022/06/29 03:10:00;;;;;;;0.3;0.3;;;;;;;17.6;100.0;101240;;;;
2022/06/29 03:11:00;;;;;;;0.3;0.3;;;;;;;17.6;100.0;101240;;;;
2022/06/29 03:12:00;;;;;;;0.3;0.3;;;;;;;17.6;100.0;101240;;;;
2022/06/29 03:13:00;;;;;;;0.3;0.3;;;;;;;17.6;100.0;101240;;;;
2022/06/29 03:14:00;;;;;;;0.3;0.3;;;;;;;17.5;100.0;101250;;;;
2022/06/29 03:15:00;;;;;;;0.3;0.3;;;;;;;17.5;100.0;101250;;;;
2022/06/29 03:16:00;;;;;;;0.3;0.3;;;;;;;17.4;100.0;101250;;;;
2022/06/29 03:17:00;;;;;;;0.3;0.3;;;;;;;17.4;100.0;101250;;;;
2022/06/29 03:18:00;;;;;;;0.3;0.3;;;;;;;17.5;100.0;101250;;;;
2022/06/29 03:19:00;;;;;;;0.3;0.3;;;;;;;17.5;100.0;101250;;;;
2022/06/29 03:20:01;;;;;;;0.3;0.3;;;;;;;17.6;100.0;101250;;;;
2022/06/29 03:21:00;;;;;;;0.3;0.3;;;;;;;17.6;100.0;101250;;;;
2022/06/29 03:22:00;;;;;;;0.3;0.3;;;;;;;17.4;100.0;101240;;;;
2022/06/29 03:23:00;;;;;;;0.9;0.9;;;;;;;17.4;100.0;101240;;;;
2022/06/29 03:24:01;;;;;;;0.9;0.9;;;;;;;17.2;100.0;101250;;;;
2022/06/29 03:25:00;;;;;;;0.9;0.9;;;;;;;17.2;100.0;101250;;;;
2022/06/29 03:26:00;;;;;;;0.9;0.9;;;;;;;17.3;100.0;101240;;;;
2022/06/29 03:27:00;;;;;;;0.9;0.9;;;;;;;17.3;100.0;101240;;;;
2022/06/29 03:28:00;;;;;;;0.9;0.9;;;;;;;17.2;100.0;101240;;;;
2022/06/29 03:29:00;;;;;;;0.9;0.9;;;;;;;17.2;100.0;101240;;;;
2022/06/29 03:30:01;;;;;;;0.9;0.9;;;;;;;17.2;100.0;101230;;;;
2022/06/29 03:31:00;;;;;;;0.9;0.9;;;;;;;17.2;100.0;101230;;;;
2022/06/29 03:32:00;;;;;;;0.9;0.9;;;;;;;17.2;100.0;101230;;;;
2022/06/29 03:33:00;;;;;;;0.9;0.9;;;;;;;17.2;100.0;101230;;;;
2022/06/29 03:34:00;;;;;;;0.9;0.9;;;;;;;17.3;100.0;101230;;;;
2022/06/29 03:35:00;;;;;;;0.9;0.9;;;;;;;17.3;100.0;101230;;;;
2022/06/29 03:36:00;;;;;;;0.9;0.9;;;;;;;17.2;100.0;101230;;;;
2022/06/29 03:37:00;;;;;;;0.9;0.9;;;;;;;17.2;100.0;101230;;;;
2022/06/29 03:38:00;;;;;;;0.9;0.9;;;;;;;17.3;100.0;101230;;;;
2022/06/29 03:39:00;;;;;;;0.9;0.9;;;;;;;17.3;100.0;101230;;;;
2022/06/29 03:40:00;;;;;;;0.9;0.9;;;;;;;17.1;100.0;101230;;;;
2022/06/29 03:41:00;;;;;;;0.9;0.9;;;;;;;17.1;100.0;101230;;;;
2022/06/29 03:42:00;;;;;;;0.9;0.9;;;;;;;17.2;100.0;101230;;;;
2022/06/29 03:43:00;;;;;;;0.6;0.6;;;;;;;17.2;100.0;101230;;;;
2022/06/29 03:44:00;;;;;;;0.6;0.6;;;;;;;17.1;100.0;101230;;;;
2022/06/29 03:45:00;;;;;;;0.6;0.6;;;;;;;17.1;100.0;101230;;;;
2022/06/29 03:46:00;;;;;;;0.6;0.6;;;;;;;17.2;100.0;101220;;;;
2022/06/29 03:47:00;;;;;;;0.6;0.6;;;;;;;17.2;100.0;101220;;;;
2022/06/29 03:48:00;;;;;;;0.6;0.6;;;;;;;17.0;100.0;101220;;;;
2022/06/29 03:49:00;;;;;;;0.6;0.6;;;;;;;17.0;100.0;101220;;;;
2022/06/29 03:50:00;;;;;;;0.6;0.6;;;;;;;17.1;100.0;101220;;;;
2022/06/29 03:51:00;;;;;;;0.6;0.6;;;;;;;17.1;100.0;101220;;;;
2022/06/29 03:52:00;;;;;;;0.6;0.6;;;;;;;17.1;100.0;101220;;;;
2022/06/29 03:53:00;;;;;;;0.6;0.6;;;;;;;17.1;100.0;101220;;;;
2022/06/29 03:54:00;;;;;;;0.6;0.6;;;;;;;17.1;100.0;101230;;;;
2022/06/29 03:55:00;;;;;;;0.6;0.6;;;;;;;17.1;100.0;101230;;;;
2022/06/29 03:56:00;;;;;;;0.6;0.6;;;;;;;17.1;100.0;101220;;;;
2022/06/29 03:57:00;;;;;;;0.6;0.6;;;;;;;17.1;100.0;101220;;;;
2022/06/29 03:58:00;;;;;;;0.6;0.6;;;;;;;17.1;100.0;101220;;;;
2022/06/29 03:59:00;;;;;;;0.6;0.6;;;;;;;17.1;100.0;101220;;;;
2022/06/29 04:00:00;;;;;;;0.6;0.6;;;;;;;17.1;100.0;101220;;;;
2022/06/29 04:01:00;;;;;;;0.6;0.6;;;;;;;17.1;100.0;101220;;;;
2022/06/29 04:02:00;;;;;;;0.6;0.6;;;;;;;17.1;100.0;101210;;;;
2022/06/29 04:03:00;;;;;;;0.3;0.3;;;;;;;17.1;100.0;101210;;;;
2022/06/29 04:04:00;;;;;;;0.3;0.3;;;;;;;17.1;100.0;101220;;;;
2022/06/29 04:05:00;;;;;;;0.3;0.3;;;;;;;17.1;100.0;101220;;;;
2022/06/29 04:06:00;;;;;;;0.3;0.3;;;;;;;17.2;100.0;101210;;;;
2022/06/29 04:07:00;;;;;;;0.3;0.3;;;;;;;17.2;100.0;101210;;;;
2022/06/29 04:08:00;;;;;;;0.3;0.3;;;;;;;17.1;100.0;101210;;;;
2022/06/29 04:09:00;;;;;;;0.3;0.3;;;;;;;17.1;100.0;101210;;;;
2022/06/29 04:10:00;;;;;;;0.3;0.3;;;;;;;17.0;100.0;101210;;;;
2022/06/29 04:11:00;;;;;;;0.3;0.3;;;;;;;17.0;100.0;101210;;;;
2022/06/29 04:12:00;;;;;;;0.3;0.3;;;;;;;17.1;100.0;101210;;;;
2022/06/29 04:13:00;;;;;;;0.3;0.3;;;;;;;17.1;100.0;101210;;;;
2022/06/29 04:14:00;;;;;;;0.3;0.3;;;;;;;17.1;100.0;101210;;;;
2022/06/29 04:15:00;;;;;;;0.3;0.3;;;;;;;17.1;100.0;101210;;;;
2022/06/29 04:16:00;;;;;;;0.3;0.3;;;;;;;17.2;100.0;101210;;;;
2022/06/29 04:17:00;;;;;;;0.3;0.3;;;;;;;17.2;100.0;101210;;;;
2022/06/29 04:18:00;;;;;;;0.3;0.3;;;;;;;17.1;100.0;101210;;;;
2022/06/29 04:19:00;;;;;;;0.3;0.3;;;;;;;17.1;100.0;101210;;;;
2022/06/29 04:20:02;;;;;;;0.3;0.3;;;;;;;17.1;100.0;101210;;;;
2022/06/29 04:21:07;;;;;;;0.3;0.3;;;;;;;17.1;100.0;101210;;;;
2022/06/29 04:22:00;;;;;;;0.6;0.6;;;;;;;17.2;100.0;101210;;;;
2022/06/29 04:23:01;;;;;;;0.6;0.6;;;;;;;17.2;100.0;101210;;;;
2022/06/29 04:24:00;;;;;;;0.6;0.6;;;;;;;17.2;100.0;101210;;;;
2022/06/29 04:25:00;;;;;;;0.6;0.6;;;;;;;17.2;100.0;101210;;;;
2022/06/29 04:26:00;;;;;;;0.6;0.6;;;;;;;17.2;100.0;101210;;;;
2022/06/29 04:27:00;;;;;;;0.6;0.6;;;;;;;17.2;100.0;101210;;;;
2022/06/29 04:28:00;;;;;;;0.6;0.6;;;;;;;17.2;100.0;101210;;;;
2022/06/29 04:29:00;;;;;;;0.6;0.6;;;;;;;17.2;100.0;101210;;;;
2022/06/29 04:30:00;;;;;;;0.6;0.6;;;;;;;17.1;100.0;101210;;;;
2022/06/29 04:31:01;;;;;;;0.6;0.6;;;;;;;17.1;100.0;101210;;;;
2022/06/29 04:32:00;;;;;;;0.6;0.6;;;;;;;17.1;100.0;101210;;;;
2022/06/29 04:33:00;;;;;;;0.6;0.6;;;;;;;17.1;100.0;101210;;;;
2022/06/29 04:34:00;;;;;;;0.6;0.6;;;;;;;17.2;100.0;101200;;;;
2022/06/29 04:35:00;;;;;;;0.6;0.6;;;;;;;17.2;100.0;101200;;;;
2022/06/29 04:36:01;;;;;;;0.6;0.6;;;;;;;17.1;100.0;101210;;;;
2022/06/29 04:37:00;;;;;;;0.6;0.6;;;;;;;17.1;100.0;101210;;;;
2022/06/29 04:38:00;;;;;;;0.6;0.6;;;;;;;17.1;100.0;101210;;;;
2022/06/29 04:39:00;;;;;;;0.6;0.6;;;;;;;17.1;100.0;101210;;;;
2022/06/29 04:40:03;;;;;;;0.6;0.6;;;;;;;17.1;100.0;101200;;;;
2022/06/29 04:41:00;;;;;;;0.6;0.6;;;;;;;17.1;100.0;101200;;;;
2022/06/29 04:42:00;;;;;;;0.6;0.6;;;;;;;17.2;100.0;101200;;;;
2022/06/29 04:43:00;;;;;;;0.6;0.6;;;;;;;17.2;100.0;101200;;;;
2022/06/29 04:44:00;;;;;;;0.6;0.6;;;;;;;17.3;100.0;101190;;;;
2022/06/29 04:45:00;;;;;;;0.6;0.6;;;;;;;17.3;100.0;101190;;;;
2022/06/29 04:47:00;;;;;;;0.6;0.6;;;;;;;17.4;100.0;101180;;;;
2022/06/29 04:48:00;;;;;;;0.6;0.6;;;;;;;17.2;100.0;101190;;;;
2022/06/29 04:49:01;;;;;;;0.6;0.6;;;;;;;17.2;100.0;101190;;;;
2022/06/29 04:50:00;;;;;;;0.6;0.6;;;;;;;17.3;100.0;101190;;;;
2022/06/29 04:51:00;;;;;;;0.6;0.6;;;;;;;17.3;100.0;101190;;;;
2022/06/29 04:52:00;;;;;;;0.6;0.6;;;;;;;17.3;100.0;101200;;;;
2022/06/29 04:53:00;;;;;;;0.6;0.6;;;;;;;17.3;100.0;101200;;;;
2022/06/29 04:54:00;;;;;;;0.6;0.6;;;;;;;17.4;100.0;101200;;;;
2022/06/29 04:55:00;;;;;;;0.6;0.6;;;;;;;17.4;100.0;101200;;;;
2022/06/29 04:56:00;;;;;;;0.6;0.6;;;;;;;17.4;100.0;101190;;;;
2022/06/29 04:57:00;;;;;;;0.6;0.6;;;;;;;17.4;100.0;101190;;;;
2022/06/29 04:58:00;;;;;;;0.6;0.6;;;;;;;17.5;100.0;101190;;;;
2022/06/29 04:59:00;;;;;;;0.6;0.6;;;;;;;17.5;100.0;101190;;;;
2022/06/29 05:00:00;;;;;;;0.6;0.6;;;;;;;17.5;100.0;101200;;;;
2022/06/29 05:01:00;;;;;;;0.6;0.6;;;;;;;17.5;100.0;101200;;;;
2022/06/29 05:02:00;;;;;;;0.2;0.2;;;;;;;17.5;100.0;101200;;;;
2022/06/29 05:03:00;;;;;;;0.2;0.2;;;;;;;17.5;100.0;101200;;;;
2022/06/29 05:04:00;;;;;;;0.2;0.2;;;;;;;17.6;100.0;101190;;;;
2022/06/29 05:05:00;;;;;;;0.2;0.2;;;;;;;17.6;100.0;101190;;;;
2022/06/29 05:06:00;;;;;;;0.2;0.2;;;;;;;17.6;100.0;101190;;;;
2022/06/29 05:07:00;;;;;;;0.2;0.2;;;;;;;17.6;100.0;101190;;;;
2022/06/29 05:08:00;;;;;;;0.2;0.2;;;;;;;17.6;100.0;101190;;;;
2022/06/29 05:09:00;;;;;;;0.2;0.2;;;;;;;17.6;100.0;101190;;;;
2022/06/29 05:10:00;;;;;;;0.2;0.2;;;;;;;17.7;100.0;101190;;;;
2022/06/29 05:11:00;;;;;;;0.2;0.2;;;;;;;17.7;100.0;101190;;;;
2022/06/29 05:12:00;;;;;;;0.2;0.2;;;;;;;17.7;100.0;101190;;;;
2022/06/29 05:13:00;;;;;;;0.2;0.2;;;;;;;17.7;100.0;101190;;;;
2022/06/29 05:14:00;;;;;;;0.2;0.2;;;;;;;17.7;100.0;101190;;;;
2022/06/29 05:15:00;;;;;;;0.2;0.2;;;;;;;17.7;100.0;101190;;;;
2022/06/29 05:16:00;;;;;;;0.2;0.2;;;;;;;17.8;100.0;101190;;;;
2022/06/29 05:17:00;;;;;;;0.2;0.2;;;;;;;17.8;100.0;101190;;;;
2022/06/29 05:18:00;;;;;;;0.2;0.2;;;;;;;17.9;100.0;101190;;;;
2022/06/29 05:19:00;;;;;;;0.2;0.2;;;;;;;17.9;100.0;101190;;;;
2022/06/29 05:20:00;;;;;;;0.2;0.2;;;;;;;17.9;100.0;101190;;;;
2022/06/29 05:21:00;;;;;;;0.2;0.2;;;;;;;17.9;100.0;101190;;;;
2022/06/29 05:22:00;;;;;;;0.3;0.3;;;;;;;18.0;100.0;101180;;;;
2022/06/29 05:23:00;;;;;;;0.3;0.3;;;;;;;18.0;100.0;101180;;;;
2022/06/29 05:24:00;;;;;;;0.3;0.3;;;;;;;18.1;100.0;101180;;;;
2022/06/29 05:25:00;;;;;;;0.3;0.3;;;;;;;18.1;100.0;101180;;;;
2022/06/29 05:26:00;;;;;;;0.3;0.3;;;;;;;18.1;100.0;101190;;;;
2022/06/29 05:27:00;;;;;;;0.3;0.3;;;;;;;18.1;100.0;101190;;;;
2022/06/29 05:28:00;;;;;;;0.3;0.3;;;;;;;18.1;100.0;101180;;;;
2022/06/29 05:29:00;;;;;;;0.3;0.3;;;;;;;18.1;100.0;101180;;;;
2022/06/29 05:30:00;;;;;;;0.3;0.3;;;;;;;18.2;100.0;101190;;;;
2022/06/29 05:31:00;;;;;;;0.3;0.3;;;;;;;18.2;100.0;101190;;;;
2022/06/29 05:32:00;;;;;;;0.3;0.3;;;;;;;18.2;100.0;101190;;;;
2022/06/29 05:33:00;;;;;;;0.3;0.3;;;;;;;18.2;100.0;101190;;;;
2022/06/29 05:34:00;;;;;;;0.3;0.3;;;;;;;18.3;100.0;101190;;;;
2022/06/29 05:35:00;;;;;;;0.3;0.3;;;;;;;18.3;100.0;101190;;;;
2022/06/29 05:36:02;;;;;;;0.3;0.3;;;;;;;18.4;100.0;101190;;;;
2022/06/29 05:37:00;;;;;;;0.3;0.3;;;;;;;18.4;100.0;101190;;;;
2022/06/29 05:38:01;;;;;;;0.3;0.3;;;;;;;18.6;100.0;101190;;;;
2022/06/29 05:39:00;;;;;;;0.3;0.3;;;;;;;18.6;100.0;101190;;;;
2022/06/29 05:40:00;;;;;;;0.3;0.3;;;;;;;18.6;100.0;101190;;;;
2022/06/29 05:41:01;;;;;;;0.3;0.3;;;;;;;18.6;100.0;101190;;;;
2022/06/29 05:42:00;;;;;;;0.4;0.4;;;;;;;18.5;100.0;101190;;;;
2022/06/29 05:43:00;;;;;;;0.4;0.4;;;;;;;18.5;100.0;101190;;;;
2022/06/29 05:44:01;;;;;;;0.4;0.4;;;;;;;18.6;100.0;101190;;;;
2022/06/29 05:45:00;;;;;;;0.4;0.4;;;;;;;18.6;100.0;101190;;;;
2022/06/29 05:46:00;;;;;;;0.4;0.4;;;;;;;18.6;100.0;101190;;;;
2022/06/29 05:47:01;;;;;;;0.4;0.4;;;;;;;18.6;100.0;101190;;;;
2022/06/29 05:48:00;;;;;;;0.4;0.4;;;;;;;18.8;100.0;101180;;;;
2022/06/29 05:49:00;;;;;;;0.4;0.4;;;;;;;18.8;100.0;101180;;;;
2022/06/29 05:50:00;;;;;;;0.4;0.4;;;;;;;18.8;100.0;101180;;;;
2022/06/29 05:51:00;;;;;;;0.4;0.4;;;;;;;18.8;100.0;101180;;;;
2022/06/29 05:52:00;;;;;;;0.4;0.4;;;;;;;19.0;100.0;101180;;;;
2022/06/29 05:53:00;;;;;;;0.4;0.4;;;;;;;19.0;100.0;101180;;;;
2022/06/29 05:54:00;;;;;;;0.4;0.4;;;;;;;19.0;100.0;101180;;;;
2022/06/29 05:55:01;;;;;;;0.4;0.4;;;;;;;19.0;100.0;101180;;;;
2022/06/29 05:56:00;;;;;;;0.4;0.4;;;;;;;19.1;100.0;101180;;;;
2022/06/29 05:57:00;;;;;;;0.4;0.4;;;;;;;19.1;100.0;101180;;;;
2022/06/29 05:58:00;;;;;;;0.4;0.4;;;;;;;19.3;100.0;101180;;;;
2022/06/29 05:59:00;;;;;;;0.4;0.4;;;;;;;19.3;100.0;101180;;;;
2022/06/29 06:00:01;;;;;;;0.4;0.4;;;;;;;19.4;100.0;101180;;;;
2022/06/29 06:01:00;;;;;;;0.4;0.4;;;;;;;19.4;100.0;101180;;;;
2022/06/29 06:02:00;;;;;;;1.0;1.0;;;;;;;19.4;100.0;101180;;;;
2022/06/29 06:03:00;;;;;;;1.0;1.0;;;;;;;19.4;100.0;101180;;;;
2022/06/29 06:04:00;;;;;;;1.0;1.0;;;;;;;19.7;100.0;101180;;;;
2022/06/29 06:05:00;;;;;;;1.0;1.0;;;;;;;19.7;100.0;101180;;;;
2022/06/29 06:06:00;;;;;;;1.0;1.0;;;;;;;19.7;100.0;101180;;;;
2022/06/29 06:07:00;;;;;;;1.0;1.0;;;;;;;19.7;100.0;101180;;;;
2022/06/29 06:08:00;;;;;;;1.0;1.0;;;;;;;19.8;100.0;101170;;;;
2022/06/29 06:09:00;;;;;;;1.0;1.0;;;;;;;19.8;100.0;101170;;;;
2022/06/29 06:10:00;;;;;;;1.0;1.0;;;;;;;19.9;100.0;101180;;;;
2022/06/29 06:11:01;;;;;;;1.0;1.0;;;;;;;19.9;100.0;101180;;;;
2022/06/29 06:12:00;;;;;;;1.0;1.0;;;;;;;20.0;100.0;101190;;;;
2022/06/29 06:13:00;;;;;;;1.0;1.0;;;;;;;20.0;100.0;101190;;;;
2022/06/29 06:14:00;;;;;;;1.0;1.0;;;;;;;20.1;100.0;101180;;;;
2022/06/29 06:15:01;;;;;;;1.0;1.0;;;;;;;20.1;100.0;101180;;;;
2022/06/29 06:16:10;;;;;;;1.0;1.0;;;;;;;19.9;100.0;101180;;;;
2022/06/29 06:17:00;;;;;;;1.0;1.0;;;;;;;19.9;100.0;101180;;;;
2022/06/29 06:18:01;;;;;;;1.0;1.0;;;;;;;19.9;100.0;101180;;;;
2022/06/29 06:19:00;;;;;;;1.0;1.0;;;;;;;19.9;100.0;101180;;;;
2022/06/29 06:20:01;;;;;;;1.0;1.0;;;;;;;19.9;100.0;101190;;;;
2022/06/29 06:21:00;;;;;;;1.0;1.0;;;;;;;19.9;100.0;101190;;;;
2022/06/29 06:22:00;;;;;;;2.2;1.2;;;;;;;20.0;100.0;101190;;;;
2022/06/29 06:23:03;;;;;;;2.2;1.2;;;;;;;20.0;100.0;101190;;;;
2022/06/29 06:24:00;;;;;;;2.2;1.2;;;;;;;20.1;100.0;101190;;;;
2022/06/29 06:25:00;;;;;;;2.2;1.2;;;;;;;20.1;100.0;101190;;;;
2022/06/29 06:26:00;;;;;;;2.2;1.2;;;;;;;20.0;100.0;101180;;;;
2022/06/29 06:27:00;;;;;;;2.2;1.2;;;;;;;20.0;100.0;101180;;;;